Kamilche, Washington
Current Conditions -  °F | °C
As of 7:53 AM on Tuesday 21 Oct 2014 (Local Time) from KSHN Reporting Station
Few Clouds Few Clouds  
Wind Chill: 52°   Ceiling: Unl
Heat Index: 52°   Visibility: 10mi
Dew Point: 50°   Wind: 5mph
Humidity: 93%   Direction: 120°ESE
Pressure: 29.84"   Gusts: NA
Location:  47.1839°N, 123.15°W
Report Text: KSHN 211453Z AUTO 12004KT 10SM FEW014 11/10 A2984 RMK AO2 RAB05E25 SLP108 P0002 60009 T01110100 51014 TSNO
Loading
Personal Weather Stations






























Interactive Weather Map
Tropical Storm Tracking
New forecast layout! Learn more

10-Day Weather Forecast

Advertisements
Track Severe Weather on mobile